Latest Weather Observations for Cessnock Airport

IDN60801

Issued at 9:42 pm EST Thursday 22 August 2019 (issued every 10 minutes, with the page automatically refreshed every 10 minutes)

About weather observations | Map of weather stations | Latest weather observations for NSW | Other Formats
Station Details ID: 061260 Name: CESSNOCK AIRPORT AWS Lat: -32.79 Lon: 151.34 Height: 61.0 m
Data from the previous 72 hours. | See also: Recent months at Cessnock Airport
Date/Time
EST
Temp
°C
App
Temp
°C
Dew
Point
°C
Rel
Hum
%
Delta-T
°C
Wind Press
QNH
hPa
Press
MSL
hPa
Rain since
9am
mm
Dir  Spd
km/h
Gust
km/h
Spd
kts
Gust
kts
22/09:30pm 12.3 7.8 1.9 49 4.5 SSW 15 24 8 13 1021.8 1021.9 0.0
22/09:00pm 12.7 8.2 2.0 48 4.6 SSW 15 20 8 11 1021.4 1021.5 0.0
22/08:30pm 13.0 8.5 2.3 48 4.7 SSW 15 20 8 11 1021.2 1021.3 0.0
22/08:00pm 13.1 9.1 2.6 49 4.6 SSW 13 20 7 11 1020.7 1020.8 0.0
22/07:30pm 13.3 8.9 2.8 49 4.7 SSW 15 24 8 13 1020.3 1020.4 0.0
22/07:00pm 13.3 8.6 3.1 50 4.5 S 17 26 9 14 1019.7 1019.8 0.0
22/06:30pm 13.7 8.7 3.5 50 4.6 S 19 30 10 16 1019.2 1019.3 0.0
22/06:00pm 13.2 8.0 3.6 52 4.3 S 20 30 11 16 1018.5 1018.6 0.0
22/05:30pm 14.2 7.9 3.7 49 4.8 S 26 35 14 19 1017.4 1017.5 0.0
22/05:00pm 14.7 9.5 3.8 48 5.0 S 20 33 11 18 1016.5 1016.6 0.0
22/04:30pm 15.2 8.6 4.0 47 5.2 SSE 28 39 15 21 1015.8 1015.8 0.0
22/04:00pm 16.0 10.3 4.7 47 5.3 SSE 24 35 13 19 1015.0 1015.0 0.0
22/03:30pm 16.7 11.4 5.0 46 5.6 SE 22 32 12 17 1014.2 1014.2 0.0
22/03:00pm 16.9 11.3 5.5 47 5.5 SE 24 35 13 19 1013.6 1013.6 0.0
22/02:30pm 16.8 10.6 6.0 49 5.3 SE 28 39 15 21 1013.1 1013.1 0.0
22/02:00pm 20.0 15.1 4.1 35 7.6 SW 19 39 10 21 1012.4 1012.4 0.0
22/01:30pm 21.6 15.6 0.8 25 9.5 SW 22 35 12 19 1012.1 1012.1 0.0
22/01:00pm 20.3 14.5 0.2 26 9.0 WSW 20 33 11 18 1012.0 1012.0 0.0
22/12:30pm 20.6 14.9 0.4 26 9.1 WSW 20 37 11 20 1011.9 1011.9 0.0
22/12:00pm 19.5 13.9 1.5 30 8.2 WSW 20 35 11 19 1012.2 1012.2 0.0
22/11:30am 20.3 14.1 2.2 30 8.4 W 24 41 13 22 1012.3 1012.3 0.0
22/11:00am 19.4 12.5 2.3 32 7.9 W 28 43 15 23 1012.7 1012.7 0.0
22/10:30am 18.7 12.1 2.1 33 7.6 W 26 43 14 23 1012.6 1012.6 0.0
22/10:00am 18.8 13.1 2.6 34 7.5 WNW 22 41 12 22 1012.5 1012.5 0.0
22/09:46am 17.9 10.9 2.2 35 7.1 W 28 50 15 27 1012.5 1012.5 0.0
22/09:30am 17.7 11.2 2.5 36 6.9 WNW 26 43 14 23 1012.5 1012.5 0.0
22/09:04am 17.0 11.8 2.2 37 6.7 W 19 46 10 25 1013.4 1013.4 0.0
22/09:00am 17.2 12.4 2.4 37 6.7 WSW 17 28 9 15 1013.6 1013.6 0.0
22/08:30am 17.4 12.0 2.2 36 6.9 WNW 20 32 11 17 1013.1 1013.1 0.0
22/08:00am 15.9 10.7 2.3 40 6.1 WNW 19 33 10 18 1013.2 1013.2 0.0
22/07:30am 14.9 10.6 3.1 45 5.3 NW 15 24 8 13 1012.8 1012.8 0.0
22/07:00am 13.6 9.8 3.7 51 4.5 NW 13 19 7 10 1012.5 1012.5 0.0
22/06:30am 12.9 9.1 4.1 55 4.0 NW 13 20 7 11 1011.9 1011.9 0.0
22/06:00am 12.9 9.2 4.3 56 3.9 NNW 13 20 7 11 1011.8 1011.8 0.0
22/05:30am 13.1 9.4 4.5 56 3.9 NNW 13 20 7 11 1011.6 1011.6 0.0
22/05:00am 13.0 9.0 4.7 57 3.8 NW 15 22 8 12 1011.8 1011.8 0.0
22/04:30am 13.3 9.7 5.0 57 3.9 NW 13 20 7 11 1011.8 1011.8 0.0
22/04:00am 13.5 9.1 4.9 56 4.0 NW 17 28 9 15 1011.6 1011.6 0.0
22/03:30am 13.5 9.1 4.6 55 4.1 NW 17 24 9 13 1011.6 1011.6 0.0
22/03:00am 13.5 9.1 4.6 55 4.1 NW 17 26 9 14 1012.0 1012.0 0.0
22/02:30am 13.6 9.2 4.7 55 4.1 NW 17 24 9 13 1012.9 1012.9 0.0
22/02:00am 13.9 9.9 4.8 54 4.2 NW 15 24 8 13 1013.4 1013.4 0.0
22/01:30am 13.9 9.5 4.5 53 4.3 NW 17 26 9 14 1013.8 1013.8 0.0
22/01:00am 14.0 9.9 4.3 52 4.5 NW 15 24 8 13 1014.6 1014.6 0.0
22/12:30am 13.6 9.0 3.9 52 4.4 NW 17 22 9 12 1015.0 1015.0 0.0
22/12:00am 13.3 9.1 3.7 52 4.3 NW 15 24 8 13 1015.0 1015.0 0.0
 
Date/Time
EST
Temp
°C
App
Temp
°C
Dew
Point
°C
Rel
Hum
%
Delta-T
°C
Wind Press
QNH
hPa
Press
MSL
hPa
Rain since
9am
mm
Dir  Spd
km/h
Gust
km/h
Spd
kts
Gust
kts
21/11:30pm 13.6 8.6 3.7 51 4.5 NW 19 30 10 16 1015.0 1015.0 0.0
21/11:00pm 14.0 9.4 3.8 50 4.6 NW 17 26 9 14 1015.4 1015.4 0.0
21/10:30pm 13.8 9.5 3.3 49 4.7 NNW 15 22 8 12 1015.3 1015.3 0.0
21/10:00pm 14.3 10.4 3.2 47 5.0 NNW 13 24 7 13 1015.6 1015.6 0.0
21/09:30pm 14.1 9.8 3.0 47 5.0 NW 15 24 8 13 1015.8 1015.8 0.0
21/09:00pm 14.9 10.6 3.1 45 5.3 WNW 15 20 8 11 1016.0 1016.0 0.0
21/08:30pm 15.0 10.6 2.9 44 5.5 NW 15 22 8 12 1015.3 1015.3 0.0
21/08:00pm 15.5 11.1 2.7 42 5.8 NW 15 26 8 14 1015.2 1015.2 0.0
21/07:30pm 16.2 11.4 2.6 40 6.2 NW 17 32 9 17 1015.0 1015.0 0.0
21/07:00pm 17.2 11.7 2.0 36 6.8 WNW 20 30 11 16 1015.6 1015.6 0.0
21/06:30pm 17.6 12.7 2.0 35 7.1 WNW 17 30 9 16 1015.3 1015.3 0.0
21/06:00pm 18.1 11.5 2.0 34 7.3 W 26 37 14 20 1015.1 1015.1 0.0
21/05:30pm 18.5 12.2 1.5 32 7.7 W 24 35 13 19 1014.5 1014.5 0.0
21/05:00pm 19.4 13.1 1.4 30 8.2 W 24 39 13 21 1014.5 1014.5 0.0
21/04:30pm 20.7 14.4 1.6 28 8.8 WSW 24 33 13 18 1013.6 1013.6 0.0
21/04:00pm 21.5 15.1 1.2 26 9.3 W 24 41 13 22 1013.2 1013.2 0.0
21/03:39pm 21.4 14.3 1.1 26 9.3 WNW 28 48 15 26 1013.3 1013.3 0.0
21/03:30pm 21.4 15.0 1.1 26 9.3 WNW 24 41 13 22 1013.3 1013.3 0.0
21/03:00pm 22.2 16.2 1.3 25 9.7 W 22 39 12 21 1013.5 1013.5 0.0
21/02:46pm 21.6 14.4 0.8 25 9.5 W 28 44 15 24 1013.6 1013.6 0.0
21/02:30pm 22.6 17.1 1.6 25 9.8 W 20 33 11 18 1013.5 1013.5 0.0
21/02:00pm 22.1 14.9 0.6 24 9.8 WSW 28 48 15 26 1013.5 1013.5 0.0
21/01:54pm 21.9 14.7 0.4 24 9.7 W 28 48 15 26 1013.6 1013.6 0.0
21/01:30pm 22.6 17.1 1.6 25 9.8 WNW 20 32 11 17 1013.7 1013.7 0.0
21/01:16pm 20.7 13.8 2.5 30 8.5 NW 28 50 15 27 1013.6 1013.6 0.0
21/01:00pm 20.8 15.1 2.6 30 8.5 NW 22 41 12 22 1013.8 1013.8 0.0
21/12:30pm 20.3 13.8 2.6 31 8.3 NW 26 43 14 23 1014.1 1014.1 0.0
21/12:03pm 19.8 12.9 2.6 32 8.0 NW 28 46 15 25 1014.9 1014.9 0.0
21/12:00pm 19.7 12.5 3.0 33 7.8 NW 30 46 16 25 1014.9 1014.9 0.0
21/11:34am 18.2 10.9 2.5 35 7.2 NW 30 48 16 26 1015.2 1015.2 0.0
21/11:30am 18.5 11.2 2.4 34 7.4 NW 30 46 16 25 1015.4 1015.4 0.0
21/11:16am 18.1 11.2 2.4 35 7.2 NW 28 46 15 25 1015.1 1015.1 0.0
21/11:00am 17.9 11.3 2.2 35 7.1 NW 26 41 14 22 1015.7 1015.7 0.0
21/10:43am 17.6 10.7 2.8 37 6.8 NW 28 46 15 25 1016.3 1016.3 0.0
21/10:30am 17.8 11.7 2.9 37 6.9 NW 24 41 13 22 1016.6 1016.7 0.0
21/10:00am 15.9 8.6 2.7 41 6.0 NW 30 41 16 22 1017.3 1017.4 0.0
21/09:30am 15.3 8.8 2.8 43 5.6 NW 26 43 14 23 1017.5 1017.6 0.0
21/09:00am 13.8 8.1 3.0 48 4.8 NW 22 43 12 23 1018.1 1018.2 0.0
21/08:30am 12.5 7.8 2.9 52 4.2 NW 17 26 9 14 1018.7 1018.8 0.0
21/08:00am 12.0 5.5 2.7 53 4.1 NW 26 39 14 21 1018.1 1018.2 0.0
21/07:30am 11.1 5.7 2.7 56 3.6 NW 20 33 11 18 1018.1 1018.2 0.0
21/07:00am 10.3 5.1 2.7 59 3.3 NW 19 26 10 14 1017.9 1018.0 0.0
21/06:30am 9.9 4.7 2.3 59 3.2 NW 19 30 10 16 1017.5 1017.6 0.0
21/06:00am 10.0 4.2 2.4 59 3.2 NW 22 37 12 20 1016.8 1016.9 0.0
21/05:30am 10.0 4.2 2.4 59 3.2 NW 22 30 12 16 1017.2 1017.3 0.0
21/05:00am 9.8 4.0 2.2 59 3.2 NW 22 35 12 19 1017.2 1017.3 0.0
21/04:30am 9.9 4.4 2.0 58 3.3 NW 20 35 11 19 1017.4 1017.5 0.0
21/04:00am 9.9 4.6 2.0 58 3.3 NW 19 26 10 14 1017.8 1017.9 0.0
21/03:30am 9.8 4.9 1.9 58 3.3 NW 17 28 9 15 1018.1 1018.2 0.0
21/03:00am 10.0 5.5 1.9 57 3.4 NW 15 26 8 14 1018.5 1018.6 0.0
21/02:30am 10.3 5.8 1.9 56 3.5 NW 15 26 8 14 1019.0 1019.1 0.0
21/02:00am 10.4 5.5 1.8 55 3.6 NW 17 30 9 16 1019.2 1019.3 0.0
21/01:30am 10.5 5.9 1.6 54 3.7 NW 15 28 8 15 1019.7 1019.8 0.0
21/01:00am 11.0 6.1 1.8 53 3.9 NW 17 26 9 14 1020.0 1020.1 0.0
21/12:30am 11.2 6.6 1.5 51 4.1 NW 15 24 8 13 1020.1 1020.2 0.0
21/12:00am 11.4 7.2 1.4 50 4.2 NW 13 28 7 15 1020.4 1020.5 0.0
 
Date/Time
EST
Temp
°C
App
Temp
°C
Dew
Point
°C
Rel
Hum
%
Delta-T
°C
Wind Press
QNH
hPa
Press
MSL
hPa
Rain since
9am
mm
Dir  Spd
km/h
Gust
km/h
Spd
kts
Gust
kts
20/11:30pm 11.3 7.3 0.4 47 4.5 NW 11 17 6 9 1020.5 1020.6 0.0
20/11:00pm 12.1 6.5 0.2 44 4.9 NW 19 26 10 14 1020.6 1020.7 0.0
20/10:30pm 12.4 7.5 -0.5 41 5.3 WNW 15 24 8 13 1020.6 1020.7 0.0
20/10:00pm 13.4 7.7 -1.0 37 5.8 WNW 19 35 10 19 1020.8 1020.9 0.0
20/09:30pm 13.6 8.5 -1.6 35 6.1 WNW 15 28 8 15 1020.8 1020.9 0.0
20/09:00pm 14.5 9.8 -1.6 33 6.5 NW 13 20 7 11 1020.8 1020.9 0.0
20/08:30pm 15.1 10.4 -1.5 32 6.8 NNW 13 24 7 13 1020.8 1020.9 0.0
20/08:00pm 15.4 10.7 -2.1 30 7.1 NW 13 24 7 13 1020.7 1020.8 0.0
20/07:30pm 15.0 11.0 -2.4 30 7.0 WNW 9 15 5 8 1020.4 1020.5 0.0
20/07:00pm 16.5 10.9 -3.0 26 7.8 W 17 32 9 17 1020.1 1020.2 0.0
20/06:30pm 17.3 11.7 -2.9 25 8.2 W 17 32 9 17 1020.0 1020.1 0.0
20/06:00pm 17.6 13.4 -3.7 23 8.5 WNW 9 17 5 9 1019.8 1019.9 0.0
20/05:30pm 18.4 13.0 -4.3 21 9.1 W 15 24 8 13 1019.4 1019.5 0.0
20/05:00pm 19.5 13.1 -4.7 19 9.7 W 20 30 11 16 1019.0 1019.1 0.0
20/04:30pm 21.3 16.3 -4.0 18 10.5 W 13 20 7 11 1018.6 1018.7 0.0
20/04:00pm 21.4 14.6 -5.4 16 10.8 W 22 33 12 18 1018.3 1018.4 0.0
20/03:30pm 21.9 15.5 -5.0 16 11.0 W 20 35 11 19 1018.0 1018.1 0.0
20/03:00pm 22.1 15.8 -4.1 17 10.9 NW 20 37 11 20 1018.4 1018.5 0.0
20/02:30pm 20.9 15.0 -1.0 23 9.6 NW 20 35 11 19 1018.8 1018.9 0.0
20/02:00pm 19.5 13.2 -1.0 25 8.8 NNW 22 35 12 19 1019.3 1019.4 0.0
20/01:30pm 18.5 12.2 -0.8 27 8.3 NW 22 35 12 19 1020.0 1020.1 0.0
20/01:00pm 18.2 12.0 -0.6 28 8.1 NW 22 35 12 19 1020.7 1020.8 0.0
20/12:30pm 16.6 9.8 -1.5 29 7.5 NW 24 41 13 22 1021.3 1021.4 0.0
20/12:00pm 16.1 9.4 -1.0 31 7.1 NW 24 35 13 19 1021.9 1022.0 0.0
20/11:39am 15.1 7.6 -1.5 32 6.8 NW 28 46 15 25 1022.7 1022.7 0.0
20/11:30am 15.8 9.5 -0.8 32 7.0 WNW 22 39 12 21 1022.8 1022.8 0.0
20/11:00am 14.6 7.8 -1.5 33 6.5 NW 24 39 13 21 1023.3 1023.3 0.0
20/10:30am 13.6 7.2 -1.6 35 6.1 NW 22 33 12 18 1023.8 1023.8 0.0
20/10:00am 13.0 7.1 -1.0 38 5.7 NW 20 33 11 18 1023.9 1023.9 0.0
20/09:30am 11.4 5.4 -1.4 41 5.1 NW 20 33 11 18 1024.2 1024.2 0.0
20/09:00am 10.2 4.2 -1.5 44 4.5 NNW 20 32 11 17 1024.3 1024.3 0.0
20/08:30am 8.9 3.5 -1.5 48 4.0 NW 17 28 9 15 1024.5 1024.5 0.0
20/08:00am 7.4 1.9 -2.1 51 3.5 NNW 17 28 9 15 1024.5 1024.5 0.0
20/07:30am 6.7 1.9 -2.2 53 3.3 NNW 13 20 7 11 1024.5 1024.5 0.0
20/07:00am 6.0 0.8 -2.6 54 3.1 NNW 15 22 8 12 1024.3 1024.3 0.0
20/06:30am 6.1 -0.4 -2.7 53 3.2 NW 22 32 12 17 1024.0 1024.0 0.0
20/06:00am 5.9 -0.3 -2.9 53 3.1 NW 20 32 11 17 1024.0 1024.0 0.0
20/05:30am 6.0 0.0 -2.8 53 3.2 WNW 19 26 10 14 1023.5 1023.5 0.0
20/05:00am 6.4 0.4 -3.0 51 3.4 NW 19 28 10 15 1023.3 1023.3 0.0
20/04:30am 6.5 1.3 -2.9 51 3.4 NW 15 24 8 13 1023.2 1023.2 0.0
20/04:00am 6.3 1.8 -3.1 51 3.3 NW 11 15 6 8 1023.3 1023.3 0.0
20/03:30am 6.3 1.8 -3.6 49 3.5 WNW 11 15 6 8 1023.4 1023.4 0.0
20/03:00am 6.5 1.6 -3.4 49 3.5 NW 13 17 7 9 1023.7 1023.7 0.0
20/02:30am 6.5 1.9 -3.7 48 3.6 WNW 11 15 6 8 1023.9 1023.9 0.0
20/02:00am 7.1 1.8 -3.7 46 3.8 NW 15 20 8 11 1024.0 1024.0 0.0
20/01:30am 7.5 2.5 -3.9 44 4.1 NW 13 19 7 10 1024.1 1024.1 0.0
20/01:00am 8.3 3.3 -4.5 40 4.5 NNW 13 26 7 14 1024.0 1024.0 0.0
20/12:30am 9.5 3.8 -3.7 39 4.8 WNW 17 30 9 16 1024.1 1024.1 0.0
20/12:00am 9.7 4.4 -3.6 39 4.9 WNW 15 24 8 13 1024.1 1024.1 0.0
 
Date/Time
EST
Temp
°C
App
Temp
°C
Dew
Point
°C
Rel
Hum
%
Delta-T
°C
Wind Press
QNH
hPa
Press
MSL
hPa
Rain since
9am
mm
Dir  Spd
km/h
Gust
km/h
Spd
kts
Gust
kts
19/11:30pm 9.7 4.3 -4.3 37 5.1 W 15 28 8 15 1024.2 1024.2 0.0
19/11:00pm 10.2 4.4 -4.2 36 5.2 WNW 17 30 9 16 1024.0 1024.0 0.0
19/10:30pm 10.3 4.9 -4.5 35 5.4 W 15 26 8 14 1023.7 1023.7 0.0
19/10:00pm 10.1 5.1 -4.6 35 5.3 WNW 13 20 7 11 1023.7 1023.7 0.0

Other formats

Comma delimited format used in spreadsheet applications
http://www.bom.gov.au/fwo/IDN60801/IDN60801.95771.axf

JavaScript Object Notation format (JSON) in row-major order
http://www.bom.gov.au/fwo/IDN60801/IDN60801.95771.json

Data quality

Most of these data are generated automatically and are frequently updated. Quality checks on data are not normally performed. It is possible for incorrect values to appear. Refer to information at About Latest Weather Observations and please check the disclaimer before using these data.